createdAt,value
2022-12-11T00:00:00.567Z,56
2022-12-11T00:10:00.614Z,54
2022-12-11T00:20:00.770Z,55
2022-12-11T00:30:00.565Z,55
2022-12-11T00:40:00.428Z,54
2022-12-11T00:50:00.448Z,55
2022-12-11T01:00:01.029Z,53
2022-12-11T01:10:01.570Z,53
2022-12-11T01:20:00.349Z,49
2022-12-11T01:30:00.310Z,50
2022-12-11T01:40:00.293Z,50
2022-12-11T01:50:00.247Z,51
2022-12-11T02:00:00.314Z,49
2022-12-11T02:10:00.236Z,49
2022-12-11T02:20:00.211Z,47
2022-12-11T02:30:00.258Z,47
2022-12-11T02:40:00.456Z,48
2022-12-11T02:50:00.251Z,48
2022-12-11T03:00:00.265Z,48
2022-12-11T03:10:00.258Z,47
2022-12-11T03:20:00.426Z,46
2022-12-11T03:30:00.261Z,44
2022-12-11T03:40:00.242Z,45
2022-12-11T03:50:00.248Z,49
2022-12-11T04:00:00.893Z,51
2022-12-11T04:10:00.747Z,55
2022-12-11T04:20:00.290Z,60
2022-12-11T04:30:00.263Z,61
2022-12-11T04:40:00.282Z,65
2022-12-11T04:50:00.257Z,67
2022-12-11T05:00:00.308Z,66
2022-12-11T05:10:00.255Z,66
2022-12-11T05:20:00.258Z,68
2022-12-11T05:30:00.228Z,64
2022-12-11T05:40:00.274Z,65
2022-12-11T05:50:00.272Z,64
2022-12-11T06:00:00.264Z,67
2022-12-11T06:10:00.387Z,65
2022-12-11T06:20:01.249Z,67
2022-12-11T06:30:01.178Z,69
2022-12-11T06:40:00.518Z,69
2022-12-11T06:50:00.613Z,69
2022-12-11T07:00:00.358Z,72
2022-12-11T07:10:07.321Z,70
2022-12-11T07:20:00.238Z,67
2022-12-11T07:30:00.241Z,67
2022-12-11T07:40:00.294Z,66
2022-12-11T07:50:00.218Z,69
2022-12-11T08:00:00.283Z,67
2022-12-11T08:10:00.296Z,64
2022-12-11T08:20:00.258Z,79
2022-12-11T08:30:00.229Z,68
2022-12-11T08:40:00.238Z,95
2022-12-11T08:50:00.270Z,68
2022-12-11T09:00:00.429Z,63
2022-12-11T09:10:00.493Z,56
2022-12-11T09:20:00.722Z,60
2022-12-11T09:30:00.618Z,64
2022-12-11T09:40:05.736Z,55
2022-12-11T09:50:01.081Z,54
2022-12-11T10:00:04.816Z,57
2022-12-11T10:10:00.592Z,54
2022-12-11T10:20:00.270Z,54
2022-12-11T10:30:00.236Z,53
2022-12-11T10:40:00.307Z,50
2022-12-11T10:50:00.235Z,49
2022-12-11T11:00:00.268Z,46
2022-12-11T11:10:00.245Z,48
2022-12-11T11:20:00.223Z,64
2022-12-11T11:30:00.223Z,48
2022-12-11T11:40:00.272Z,55
2022-12-11T11:50:00.267Z,49
2022-12-11T12:00:00.249Z,59
2022-12-11T12:10:00.403Z,52
2022-12-11T12:20:00.235Z,51
2022-12-11T12:30:00.248Z,64
2022-12-11T12:40:00.282Z,58
2022-12-11T12:50:00.215Z,65
2022-12-11T13:00:00.332Z,61
2022-12-11T13:10:00.246Z,66
2022-12-11T13:20:00.232Z,65
2022-12-11T13:30:00.303Z,66
2022-12-11T13:40:00.332Z,79
2022-12-11T13:50:00.391Z,82
2022-12-11T14:00:00.638Z,69
2022-12-11T14:10:00.562Z,59
2022-12-11T14:20:00.410Z,61
2022-12-11T14:30:00.410Z,58
2022-12-11T14:40:00.508Z,60
2022-12-11T14:50:00.527Z,61
2022-12-11T15:00:00.387Z,58
2022-12-11T15:10:00.263Z,56
2022-12-11T15:20:00.219Z,58
2022-12-11T15:30:00.236Z,59
2022-12-11T15:40:00.259Z,57
2022-12-11T15:50:00.263Z,54
2022-12-11T16:00:00.410Z,50
2022-12-11T16:10:00.390Z,54
2022-12-11T16:20:00.215Z,56
2022-12-11T16:30:00.249Z,59
2022-12-11T16:40:00.434Z,54
2022-12-11T16:50:00.243Z,51
2022-12-11T17:10:00.313Z,52
2022-12-11T17:20:00.219Z,50
2022-12-11T17:30:00.237Z,57
2022-12-11T17:40:00.264Z,57
2022-12-11T17:50:00.230Z,59
2022-12-11T18:00:00.300Z,71
2022-12-11T18:10:00.240Z,59
2022-12-11T18:20:00.290Z,96
2022-12-11T18:30:00.260Z,65
2022-12-11T18:40:00.229Z,65
2022-12-11T18:50:05.793Z,107
2022-12-11T19:00:00.412Z,110
2022-12-11T19:10:00.241Z,125
2022-12-11T19:20:18.699Z,95
2022-12-11T19:30:00.274Z,114
2022-12-11T19:40:00.255Z,115
2022-12-11T19:50:00.246Z,101
2022-12-11T20:00:00.575Z,90
2022-12-11T20:10:00.245Z,75
2022-12-11T20:20:00.218Z,73
2022-12-11T20:30:00.233Z,77
2022-12-11T20:40:00.257Z,79
2022-12-11T20:50:00.235Z,65
2022-12-11T21:00:00.319Z,66
2022-12-11T21:10:00.269Z,62
2022-12-11T21:20:00.270Z,61
2022-12-11T21:30:00.282Z,60
2022-12-11T21:40:00.276Z,66
2022-12-11T21:50:00.260Z,63
2022-12-11T22:00:00.724Z,63
2022-12-11T22:10:00.228Z,63
2022-12-11T22:20:00.264Z,60
2022-12-11T22:30:00.270Z,61
2022-12-11T22:40:00.259Z,58
2022-12-11T22:50:00.279Z,56
2022-12-11T23:00:00.301Z,55
2022-12-11T23:10:00.221Z,53
2022-12-11T23:20:00.282Z,49
2022-12-11T23:30:00.237Z,47
2022-12-11T23:40:00.242Z,45
2022-12-11T23:50:00.216Z,44
